sensor_id;sensor_type;location;lat;lon;timestamp;temperature;humidity
23311;DHT22;11828;51.508;18.118;2023-11-22T00:01:58;17.00;32.80
23311;DHT22;11828;51.508;18.118;2023-11-22T00:04:24;16.90;32.60
23311;DHT22;11828;51.508;18.118;2023-11-22T00:06:51;16.90;32.60
23311;DHT22;11828;51.508;18.118;2023-11-22T00:09:17;16.80;32.80
23311;DHT22;11828;51.508;18.118;2023-11-22T00:11:48;16.80;32.70
23311;DHT22;11828;51.508;18.118;2023-11-22T00:14:14;16.80;32.90
23311;DHT22;11828;51.508;18.118;2023-11-22T00:16:40;16.90;32.70
23311;DHT22;11828;51.508;18.118;2023-11-22T00:19:06;17.10;32.50
23311;DHT22;11828;51.508;18.118;2023-11-22T00:21:33;17.20;32.30
23311;DHT22;11828;51.508;18.118;2023-11-22T00:23:59;17.20;32.10
23311;DHT22;11828;51.508;18.118;2023-11-22T00:26:25;17.30;32.00
23311;DHT22;11828;51.508;18.118;2023-11-22T00:28:51;17.50;31.90
23311;DHT22;11828;51.508;18.118;2023-11-22T00:31:18;17.40;31.60
23311;DHT22;11828;51.508;18.118;2023-11-22T00:33:44;17.40;31.50
23311;DHT22;11828;51.508;18.118;2023-11-22T00:36:11;17.40;31.70
23311;DHT22;11828;51.508;18.118;2023-11-22T00:38:37;17.40;31.70
23311;DHT22;11828;51.508;18.118;2023-11-22T00:41:05;17.50;31.60
23311;DHT22;11828;51.508;18.118;2023-11-22T00:43:33;17.50;31.60
23311;DHT22;11828;51.508;18.118;2023-11-22T00:45:59;17.40;31.30
23311;DHT22;11828;51.508;18.118;2023-11-22T00:48:25;17.50;31.40
23311;DHT22;11828;51.508;18.118;2023-11-22T00:50:51;17.50;31.40
23311;DHT22;11828;51.508;18.118;2023-11-22T00:53:17;17.30;31.20
23311;DHT22;11828;51.508;18.118;2023-11-22T00:55:44;17.30;30.60
23311;DHT22;11828;51.508;18.118;2023-11-22T00:58:10;17.20;30.80
23311;DHT22;11828;51.508;18.118;2023-11-22T01:00:36;17.10;31.30
23311;DHT22;11828;51.508;18.118;2023-11-22T01:03:02;17.00;31.20
23311;DHT22;11828;51.508;18.118;2023-11-22T01:05:30;17.00;31.00
23311;DHT22;11828;51.508;18.118;2023-11-22T01:07:56;17.00;31.10
23311;DHT22;11828;51.508;18.118;2023-11-22T01:10:23;16.90;31.60
23311;DHT22;11828;51.508;18.118;2023-11-22T01:12:48;17.00;31.20
23311;DHT22;11828;51.508;18.118;2023-11-22T01:15:15;17.00;31.20
23311;DHT22;11828;51.508;18.118;2023-11-22T01:17:41;17.00;31.20
23311;DHT22;11828;51.508;18.118;2023-11-22T01:20:07;17.00;31.10
23311;DHT22;11828;51.508;18.118;2023-11-22T01:22:36;17.00;31.00
23311;DHT22;11828;51.508;18.118;2023-11-22T01:25:04;17.00;31.20
23311;DHT22;11828;51.508;18.118;2023-11-22T01:27:31;16.90;31.00
23311;DHT22;11828;51.508;18.118;2023-11-22T01:29:57;17.10;30.90
23311;DHT22;11828;51.508;18.118;2023-11-22T01:32:23;16.90;31.40
23311;DHT22;11828;51.508;18.118;2023-11-22T01:34:50;16.90;30.80
23311;DHT22;11828;51.508;18.118;2023-11-22T01:37:15;16.80;30.60
23311;DHT22;11828;51.508;18.118;2023-11-22T01:39:42;16.80;30.70
23311;DHT22;11828;51.508;18.118;2023-11-22T01:42:08;16.80;30.70
23311;DHT22;11828;51.508;18.118;2023-11-22T01:44:35;16.70;30.70
23311;DHT22;11828;51.508;18.118;2023-11-22T01:47:01;16.60;31.10
23311;DHT22;11828;51.508;18.118;2023-11-22T01:49:29;16.70;31.00
23311;DHT22;11828;51.508;18.118;2023-11-22T01:51:55;16.70;30.70
23311;DHT22;11828;51.508;18.118;2023-11-22T01:54:22;16.60;30.80
23311;DHT22;11828;51.508;18.118;2023-11-22T01:56:48;16.50;30.90
23311;DHT22;11828;51.508;18.118;2023-11-22T01:59:15;16.60;31.00
23311;DHT22;11828;51.508;18.118;2023-11-22T02:01:43;16.40;31.10
23311;DHT22;11828;51.508;18.118;2023-11-22T02:04:09;16.40;30.80
23311;DHT22;11828;51.508;18.118;2023-11-22T02:06:38;16.40;30.80
23311;DHT22;11828;51.508;18.118;2023-11-22T02:09:04;16.40;31.00
23311;DHT22;11828;51.508;18.118;2023-11-22T02:11:30;16.10;30.90
23311;DHT22;11828;51.508;18.118;2023-11-22T02:13:56;16.00;31.00
23311;DHT22;11828;51.508;18.118;2023-11-22T02:16:22;16.00;31.00
23311;DHT22;11828;51.508;18.118;2023-11-22T02:18:49;16.10;31.00
23311;DHT22;11828;51.508;18.118;2023-11-22T02:21:18;16.10;31.20
23311;DHT22;11828;51.508;18.118;2023-11-22T02:23:44;15.90;31.40
23311;DHT22;11828;51.508;18.118;2023-11-22T02:26:10;14.40;30.70
23311;DHT22;11828;51.508;18.118;2023-11-22T02:28:36;15.80;31.50
23311;DHT22;11828;51.508;18.118;2023-11-22T02:31:03;15.70;31.60
23311;DHT22;11828;51.508;18.118;2023-11-22T02:33:29;15.80;31.40
23311;DHT22;11828;51.508;18.118;2023-11-22T02:35:57;15.90;31.50
23311;DHT22;11828;51.508;18.118;2023-11-22T02:38:23;16.00;31.60
23311;DHT22;11828;51.508;18.118;2023-11-22T02:40:52;15.90;31.60
23311;DHT22;11828;51.508;18.118;2023-11-22T02:43:19;15.90;31.50
23311;DHT22;11828;51.508;18.118;2023-11-22T02:45:46;15.90;31.60
23311;DHT22;11828;51.508;18.118;2023-11-22T02:48:12;16.00;31.60
23311;DHT22;11828;51.508;18.118;2023-11-22T02:50:39;16.00;31.70
23311;DHT22;11828;51.508;18.118;2023-11-22T02:53:05;15.90;31.50
23311;DHT22;11828;51.508;18.118;2023-11-22T02:55:31;16.30;31.60
23311;DHT22;11828;51.508;18.118;2023-11-22T02:57:57;15.90;31.30
23311;DHT22;11828;51.508;18.118;2023-11-22T03:00:23;15.90;31.60
23311;DHT22;11828;51.508;18.118;2023-11-22T03:02:51;15.90;31.80
23311;DHT22;11828;51.508;18.118;2023-11-22T03:05:22;16.10;31.70
23311;DHT22;11828;51.508;18.118;2023-11-22T03:07:49;16.10;31.60
23311;DHT22;11828;51.508;18.118;2023-11-22T03:10:17;16.10;31.60
23311;DHT22;11828;51.508;18.118;2023-11-22T03:12:46;16.10;31.40
23311;DHT22;11828;51.508;18.118;2023-11-22T03:15:13;16.10;31.50
23311;DHT22;11828;51.508;18.118;2023-11-22T03:17:39;16.20;31.30
23311;DHT22;11828;51.508;18.118;2023-11-22T03:20:05;16.20;31.20
23311;DHT22;11828;51.508;18.118;2023-11-22T03:22:37;16.00;31.10
23311;DHT22;11828;51.508;18.118;2023-11-22T03:25:03;15.90;30.80
23311;DHT22;11828;51.508;18.118;2023-11-22T03:27:30;15.80;31.00
23311;DHT22;11828;51.508;18.118;2023-11-22T03:29:56;15.60;31.50
23311;DHT22;11828;51.508;18.118;2023-11-22T03:32:23;15.70;31.80
23311;DHT22;11828;51.508;18.118;2023-11-22T03:34:49;15.70;31.50
23311;DHT22;11828;51.508;18.118;2023-11-22T03:37:15;15.70;31.60
23311;DHT22;11828;51.508;18.118;2023-11-22T03:39:41;15.60;31.70
23311;DHT22;11828;51.508;18.118;2023-11-22T03:42:15;15.60;31.60
23311;DHT22;11828;51.508;18.118;2023-11-22T03:44:44;15.60;31.60
23311;DHT22;11828;51.508;18.118;2023-11-22T03:47:10;15.60;31.80
23311;DHT22;11828;51.508;18.118;2023-11-22T03:49:38;15.70;31.70
23311;DHT22;11828;51.508;18.118;2023-11-22T03:52:04;16.00;32.00
23311;DHT22;11828;51.508;18.118;2023-11-22T03:54:31;15.40;31.80
23311;DHT22;11828;51.508;18.118;2023-11-22T03:56:58;15.50;31.80
23311;DHT22;11828;51.508;18.118;2023-11-22T03:59:24;15.50;32.10
23311;DHT22;11828;51.508;18.118;2023-11-22T04:01:50;15.60;32.20
23311;DHT22;11828;51.508;18.118;2023-11-22T04:04:16;15.70;32.40
23311;DHT22;11828;51.508;18.118;2023-11-22T04:06:43;15.70;31.80
23311;DHT22;11828;51.508;18.118;2023-11-22T04:09:09;15.90;31.60
23311;DHT22;11828;51.508;18.118;2023-11-22T04:11:38;15.80;31.30
23311;DHT22;11828;51.508;18.118;2023-11-22T04:14:05;15.80;32.10
23311;DHT22;11828;51.508;18.118;2023-11-22T04:16:31;15.60;31.30
23311;DHT22;11828;51.508;18.118;2023-11-22T04:18:57;15.80;31.60
23311;DHT22;11828;51.508;18.118;2023-11-22T04:21:24;15.90;31.70
23311;DHT22;11828;51.508;18.118;2023-11-22T04:23:50;15.80;31.40
23311;DHT22;11828;51.508;18.118;2023-11-22T04:26:16;15.70;31.30
23311;DHT22;11828;51.508;18.118;2023-11-22T04:28:42;15.70;31.30
23311;DHT22;11828;51.508;18.118;2023-11-22T04:31:08;15.70;31.60
23311;DHT22;11828;51.508;18.118;2023-11-22T04:33:35;15.80;31.60
23311;DHT22;11828;51.508;18.118;2023-11-22T04:36:02;15.70;31.90
23311;DHT22;11828;51.508;18.118;2023-11-22T04:38:28;15.90;31.70
23311;DHT22;11828;51.508;18.118;2023-11-22T04:40:54;16.10;31.50
23311;DHT22;11828;51.508;18.118;2023-11-22T04:43:20;16.40;31.10
23311;DHT22;11828;51.508;18.118;2023-11-22T04:45:46;16.60;30.70
23311;DHT22;11828;51.508;18.118;2023-11-22T04:48:12;16.80;30.10
23311;DHT22;11828;51.508;18.118;2023-11-22T04:50:41;17.00;29.90
23311;DHT22;11828;51.508;18.118;2023-11-22T04:53:09;17.10;29.80
23311;DHT22;11828;51.508;18.118;2023-11-22T04:55:36;17.30;30.00
23311;DHT22;11828;51.508;18.118;2023-11-22T04:58:02;17.30;29.40
23311;DHT22;11828;51.508;18.118;2023-11-22T05:00:28;17.40;29.40
23311;DHT22;11828;51.508;18.118;2023-11-22T05:02:54;17.50;29.40
23311;DHT22;11828;51.508;18.118;2023-11-22T05:05:21;17.60;29.10
23311;DHT22;11828;51.508;18.118;2023-11-22T05:07:47;17.70;28.80
23311;DHT22;11828;51.508;18.118;2023-11-22T05:10:13;17.80;28.80
23311;DHT22;11828;51.508;18.118;2023-11-22T05:12:39;17.80;28.70
23311;DHT22;11828;51.508;18.118;2023-11-22T05:15:06;17.80;28.60
23311;DHT22;11828;51.508;18.118;2023-11-22T05:17:33;17.70;28.60
23311;DHT22;11828;51.508;18.118;2023-11-22T05:20:00;17.70;28.70
23311;DHT22;11828;51.508;18.118;2023-11-22T05:22:26;17.70;28.70
23311;DHT22;11828;51.508;18.118;2023-11-22T05:24:52;17.60;28.70
23311;DHT22;11828;51.508;18.118;2023-11-22T05:27:18;17.60;28.50
23311;DHT22;11828;51.508;18.118;2023-11-22T05:29:44;17.50;28.50
23311;DHT22;11828;51.508;18.118;2023-11-22T05:32:10;17.60;28.60
23311;DHT22;11828;51.508;18.118;2023-11-22T05:34:37;17.60;28.70
23311;DHT22;11828;51.508;18.118;2023-11-22T05:37:06;17.70;28.50
23311;DHT22;11828;51.508;18.118;2023-11-22T05:39:32;17.80;28.50
23311;DHT22;11828;51.508;18.118;2023-11-22T05:41:58;17.80;28.30
23311;DHT22;11828;51.508;18.118;2023-11-22T05:44:24;17.90;28.40
23311;DHT22;11828;51.508;18.118;2023-11-22T05:46:51;17.90;28.40
23311;DHT22;11828;51.508;18.118;2023-11-22T05:49:17;18.00;28.30
23311;DHT22;11828;51.508;18.118;2023-11-22T05:51:43;18.00;28.20
23311;DHT22;11828;51.508;18.118;2023-11-22T05:54:10;18.10;28.20
23311;DHT22;11828;51.508;18.118;2023-11-22T05:56:38;18.10;28.10
23311;DHT22;11828;51.508;18.118;2023-11-22T05:59:05;18.10;28.10
23311;DHT22;11828;51.508;18.118;2023-11-22T06:01:31;17.90;28.00
23311;DHT22;11828;51.508;18.118;2023-11-22T06:03:57;18.00;27.80
23311;DHT22;11828;51.508;18.118;2023-11-22T06:06:23;17.80;27.80
23311;DHT22;11828;51.508;18.118;2023-11-22T06:08:50;17.80;27.80
23311;DHT22;11828;51.508;18.118;2023-11-22T06:11:15;17.70;27.80
23311;DHT22;11828;51.508;18.118;2023-11-22T06:13:42;17.70;27.70
23311;DHT22;11828;51.508;18.118;2023-11-22T06:16:08;17.70;27.90
23311;DHT22;11828;51.508;18.118;2023-11-22T06:18:35;17.60;27.80
23311;DHT22;11828;51.508;18.118;2023-11-22T06:21:09;17.60;27.90
23311;DHT22;11828;51.508;18.118;2023-11-22T06:23:35;17.50;27.90
23311;DHT22;11828;51.508;18.118;2023-11-22T06:26:02;17.50;27.80
23311;DHT22;11828;51.508;18.118;2023-11-22T06:28:28;17.40;27.70
23311;DHT22;11828;51.508;18.118;2023-11-22T06:30:54;17.30;27.80
23311;DHT22;11828;51.508;18.118;2023-11-22T06:33:21;17.20;28.00
23311;DHT22;11828;51.508;18.118;2023-11-22T06:35:47;17.10;28.00
23311;DHT22;11828;51.508;18.118;2023-11-22T06:38:13;17.10;28.20
23311;DHT22;11828;51.508;18.118;2023-11-22T06:40:39;17.00;28.30
23311;DHT22;11828;51.508;18.118;2023-11-22T06:43:05;17.10;28.30
23311;DHT22;11828;51.508;18.118;2023-11-22T06:45:31;17.20;28.40
23311;DHT22;11828;51.508;18.118;2023-11-22T06:47:57;17.10;28.50
23311;DHT22;11828;51.508;18.118;2023-11-22T06:50:24;17.00;28.50
23311;DHT22;11828;51.508;18.118;2023-11-22T06:52:50;17.00;28.50
23311;DHT22;11828;51.508;18.118;2023-11-22T06:55:18;17.00;28.50
23311;DHT22;11828;51.508;18.118;2023-11-22T06:57:45;17.10;28.30
23311;DHT22;11828;51.508;18.118;2023-11-22T07:00:11;17.20;28.20
23311;DHT22;11828;51.508;18.118;2023-11-22T07:02:38;17.30;28.10
23311;DHT22;11828;51.508;18.118;2023-11-22T07:05:05;17.50;28.10
23311;DHT22;11828;51.508;18.118;2023-11-22T07:07:37;17.60;27.90
23311;DHT22;11828;51.508;18.118;2023-11-22T07:10:04;17.70;27.50
23311;DHT22;11828;51.508;18.118;2023-11-22T07:12:34;17.80;27.30
23311;DHT22;11828;51.508;18.118;2023-11-22T07:15:00;18.00;27.20
23311;DHT22;11828;51.508;18.118;2023-11-22T07:17:27;18.20;26.90
23311;DHT22;11828;51.508;18.118;2023-11-22T07:19:54;18.30;26.70
23311;DHT22;11828;51.508;18.118;2023-11-22T07:22:21;18.30;26.50
23311;DHT22;11828;51.508;18.118;2023-11-22T07:24:49;18.30;26.40
23311;DHT22;11828;51.508;18.118;2023-11-22T07:27:20;18.50;26.40
23311;DHT22;11828;51.508;18.118;2023-11-22T07:29:46;18.60;26.30
23311;DHT22;11828;51.508;18.118;2023-11-22T07:32:13;18.80;26.60
23311;DHT22;11828;51.508;18.118;2023-11-22T07:34:40;18.80;25.90
23311;DHT22;11828;51.508;18.118;2023-11-22T07:37:07;18.80;25.70
23311;DHT22;11828;51.508;18.118;2023-11-22T07:39:34;18.70;25.40
23311;DHT22;11828;51.508;18.118;2023-11-22T07:42:05;18.70;25.50
23311;DHT22;11828;51.508;18.118;2023-11-22T07:44:35;18.70;25.50
23311;DHT22;11828;51.508;18.118;2023-11-22T07:47:03;18.80;25.40
23311;DHT22;11828;51.508;18.118;2023-11-22T07:49:35;18.90;25.50
23311;DHT22;11828;51.508;18.118;2023-11-22T07:52:05;19.10;24.90
23311;DHT22;11828;51.508;18.118;2023-11-22T07:54:31;19.00;25.00
23311;DHT22;11828;51.508;18.118;2023-11-22T07:56:57;19.00;25.20
23311;DHT22;11828;51.508;18.118;2023-11-22T07:59:23;19.10;25.00
23311;DHT22;11828;51.508;18.118;2023-11-22T08:01:49;19.30;25.00
23311;DHT22;11828;51.508;18.118;2023-11-22T08:04:16;19.40;24.90
23311;DHT22;11828;51.508;18.118;2023-11-22T08:06:43;19.50;24.50
23311;DHT22;11828;51.508;18.118;2023-11-22T08:09:09;19.50;24.30
23311;DHT22;11828;51.508;18.118;2023-11-22T08:11:36;19.60;24.20
23311;DHT22;11828;51.508;18.118;2023-11-22T08:14:02;19.70;24.30
23311;DHT22;11828;51.508;18.118;2023-11-22T08:16:29;19.70;24.30
23311;DHT22;11828;51.508;18.118;2023-11-22T08:18:55;19.80;23.40
23311;DHT22;11828;51.508;18.118;2023-11-22T08:21:23;19.80;23.90
23311;DHT22;11828;51.508;18.118;2023-11-22T08:23:49;19.90;24.10
23311;DHT22;11828;51.508;18.118;2023-11-22T08:26:16;20.00;24.10
23311;DHT22;11828;51.508;18.118;2023-11-22T08:28:42;20.20;23.90
23311;DHT22;11828;51.508;18.118;2023-11-22T08:31:08;20.40;23.40
23311;DHT22;11828;51.508;18.118;2023-11-22T08:33:35;20.70;23.10
23311;DHT22;11828;51.508;18.118;2023-11-22T08:36:06;20.80;22.90
23311;DHT22;11828;51.508;18.118;2023-11-22T08:38:33;21.10;22.90
23311;DHT22;11828;51.508;18.118;2023-11-22T08:41:04;21.30;22.70
23311;DHT22;11828;51.508;18.118;2023-11-22T08:43:31;21.40;22.50
23311;DHT22;11828;51.508;18.118;2023-11-22T08:45:59;21.50;22.30
23311;DHT22;11828;51.508;18.118;2023-11-22T08:48:25;21.60;22.20
23311;DHT22;11828;51.508;18.118;2023-11-22T08:50:52;21.60;22.20
23311;DHT22;11828;51.508;18.118;2023-11-22T08:53:19;21.60;21.90
23311;DHT22;11828;51.508;18.118;2023-11-22T08:55:49;21.60;22.00
23311;DHT22;11828;51.508;18.118;2023-11-22T08:58:15;21.50;22.00
23311;DHT22;11828;51.508;18.118;2023-11-22T09:00:41;21.40;21.70
23311;DHT22;11828;51.508;18.118;2023-11-22T09:03:08;21.20;22.10
23311;DHT22;11828;51.508;18.118;2023-11-22T09:05:41;21.10;23.00
23311;DHT22;11828;51.508;18.118;2023-11-22T09:08:08;20.90;22.50
23311;DHT22;11828;51.508;18.118;2023-11-22T09:10:39;20.90;22.40
23311;DHT22;11828;51.508;18.118;2023-11-22T09:13:07;20.90;22.40
23311;DHT22;11828;51.508;18.118;2023-11-22T09:15:35;20.80;22.60
23311;DHT22;11828;51.508;18.118;2023-11-22T09:18:01;20.80;22.60
23311;DHT22;11828;51.508;18.118;2023-11-22T09:20:28;20.70;22.60
23311;DHT22;11828;51.508;18.118;2023-11-22T09:22:54;20.60;22.60
23311;DHT22;11828;51.508;18.118;2023-11-22T09:25:24;20.60;22.90
23311;DHT22;11828;51.508;18.118;2023-11-22T09:27:52;20.40;23.00
23311;DHT22;11828;51.508;18.118;2023-11-22T09:30:22;20.30;22.90
23311;DHT22;11828;51.508;18.118;2023-11-22T09:33:06;20.30;23.00
23311;DHT22;11828;51.508;18.118;2023-11-22T09:35:35;20.30;23.00
23311;DHT22;11828;51.508;18.118;2023-11-22T09:38:03;20.20;23.10
23311;DHT22;11828;51.508;18.118;2023-11-22T09:40:35;20.30;22.90
23311;DHT22;11828;51.508;18.118;2023-11-22T09:43:02;20.30;22.70
23311;DHT22;11828;51.508;18.118;2023-11-22T09:45:29;20.20;22.90
23311;DHT22;11828;51.508;18.118;2023-11-22T09:47:56;20.10;23.10
23311;DHT22;11828;51.508;18.118;2023-11-22T09:50:43;20.10;22.90
23311;DHT22;11828;51.508;18.118;2023-11-22T09:53:28;20.10;22.80
23311;DHT22;11828;51.508;18.118;2023-11-22T09:55:58;20.00;23.00
23311;DHT22;11828;51.508;18.118;2023-11-22T09:58:30;20.10;23.00
23311;DHT22;11828;51.508;18.118;2023-11-22T10:00:59;20.10;23.10
23311;DHT22;11828;51.508;18.118;2023-11-22T10:03:29;20.00;23.50
23311;DHT22;11828;51.508;18.118;2023-11-22T10:05:56;19.90;23.10
23311;DHT22;11828;51.508;18.118;2023-11-22T10:08:25;20.00;22.90
23311;DHT22;11828;51.508;18.118;2023-11-22T10:10:54;19.90;23.10
23311;DHT22;11828;51.508;18.118;2023-11-22T10:13:21;19.80;23.10
23311;DHT22;11828;51.508;18.118;2023-11-22T10:15:49;19.70;23.40
23311;DHT22;11828;51.508;18.118;2023-11-22T10:18:16;19.70;23.20
23311;DHT22;11828;51.508;18.118;2023-11-22T10:20:45;19.70;23.30
23311;DHT22;11828;51.508;18.118;2023-11-22T10:23:16;19.70;23.10
23311;DHT22;11828;51.508;18.118;2023-11-22T10:25:45;19.60;23.20
23311;DHT22;11828;51.508;18.118;2023-11-22T10:28:13;19.70;23.00
23311;DHT22;11828;51.508;18.118;2023-11-22T10:30:39;19.70;23.10
23311;DHT22;11828;51.508;18.118;2023-11-22T10:33:10;19.70;23.00
23311;DHT22;11828;51.508;18.118;2023-11-22T10:35:46;19.80;23.20
23311;DHT22;11828;51.508;18.118;2023-11-22T10:38:17;19.70;23.10
23311;DHT22;11828;51.508;18.118;2023-11-22T10:40:45;19.70;23.20
23311;DHT22;11828;51.508;18.118;2023-11-22T10:43:12;19.70;23.10
23311;DHT22;11828;51.508;18.118;2023-11-22T10:45:38;19.90;22.80
23311;DHT22;11828;51.508;18.118;2023-11-22T10:48:07;19.90;22.50
23311;DHT22;11828;51.508;18.118;2023-11-22T10:50:36;19.90;22.80
23311;DHT22;11828;51.508;18.118;2023-11-22T10:53:07;19.90;22.60
23311;DHT22;11828;51.508;18.118;2023-11-22T10:55:43;19.90;22.70
23311;DHT22;11828;51.508;18.118;2023-11-22T10:58:11;20.00;22.60
23311;DHT22;11828;51.508;18.118;2023-11-22T11:00:41;20.00;22.50
23311;DHT22;11828;51.508;18.118;2023-11-22T11:03:14;19.90;22.60
23311;DHT22;11828;51.508;18.118;2023-11-22T11:05:49;20.00;22.60
23311;DHT22;11828;51.508;18.118;2023-11-22T11:08:18;19.90;22.70
23311;DHT22;11828;51.508;18.118;2023-11-22T11:10:46;19.90;22.60
23311;DHT22;11828;51.508;18.118;2023-11-22T11:13:15;20.00;22.50
23311;DHT22;11828;51.508;18.118;2023-11-22T11:15:42;20.10;22.40
23311;DHT22;11828;51.508;18.118;2023-11-22T11:18:14;20.00;22.30
23311;DHT22;11828;51.508;18.118;2023-11-22T11:20:51;20.10;22.20
23311;DHT22;11828;51.508;18.118;2023-11-22T11:23:23;20.10;22.30
23311;DHT22;11828;51.508;18.118;2023-11-22T11:25:54;20.00;22.60
23311;DHT22;11828;51.508;18.118;2023-11-22T11:28:23;20.00;22.50
23311;DHT22;11828;51.508;18.118;2023-11-22T11:30:52;20.00;22.50
23311;DHT22;11828;51.508;18.118;2023-11-22T11:35:54;20.20;22.30
23311;DHT22;11828;51.508;18.118;2023-11-22T11:38:30;20.40;22.20
23311;DHT22;11828;51.508;18.118;2023-11-22T11:41:09;20.50;22.00
23311;DHT22;11828;51.508;18.118;2023-11-22T11:43:47;20.60;21.90
23311;DHT22;11828;51.508;18.118;2023-11-22T11:46:15;20.80;21.70
23311;DHT22;11828;51.508;18.118;2023-11-22T11:48:48;21.00;21.70
23311;DHT22;11828;51.508;18.118;2023-11-22T11:51:24;21.10;21.60
23311;DHT22;11828;51.508;18.118;2023-11-22T11:53:54;21.30;21.30
23311;DHT22;11828;51.508;18.118;2023-11-22T11:56:21;21.30;21.20
23311;DHT22;11828;51.508;18.118;2023-11-22T11:58:50;21.40;21.40
23311;DHT22;11828;51.508;18.118;2023-11-22T12:01:17;21.50;21.40
23311;DHT22;11828;51.508;18.118;2023-11-22T12:03:46;21.50;21.10
23311;DHT22;11828;51.508;18.118;2023-11-22T12:06:16;21.60;21.10
23311;DHT22;11828;51.508;18.118;2023-11-22T12:08:43;21.70;20.70
23311;DHT22;11828;51.508;18.118;2023-11-22T12:11:10;21.80;20.90
23311;DHT22;11828;51.508;18.118;2023-11-22T12:13:37;21.80;20.90
23311;DHT22;11828;51.508;18.118;2023-11-22T12:16:05;21.90;20.80
23311;DHT22;11828;51.508;18.118;2023-11-22T12:18:49;21.90;20.80
23311;DHT22;11828;51.508;18.118;2023-11-22T12:21:17;21.90;20.50
23311;DHT22;11828;51.508;18.118;2023-11-22T12:23:44;21.80;20.80
23311;DHT22;11828;51.508;18.118;2023-11-22T12:26:13;21.70;20.90
23311;DHT22;11828;51.508;18.118;2023-11-22T12:28:42;21.70;20.80
23311;DHT22;11828;51.508;18.118;2023-11-22T12:31:12;21.80;20.80
23311;DHT22;11828;51.508;18.118;2023-11-22T12:33:43;21.70;20.80
23311;DHT22;11828;51.508;18.118;2023-11-22T12:36:10;21.70;20.80
23311;DHT22;11828;51.508;18.118;2023-11-22T12:38:41;21.70;20.70
23311;DHT22;11828;51.508;18.118;2023-11-22T12:41:07;21.70;20.90
23311;DHT22;11828;51.508;18.118;2023-11-22T12:43:34;21.70;21.20
23311;DHT22;11828;51.508;18.118;2023-11-22T12:46:01;21.70;21.10
23311;DHT22;11828;51.508;18.118;2023-11-22T12:48:30;21.70;21.00
23311;DHT22;11828;51.508;18.118;2023-11-22T12:50:56;21.90;20.50
23311;DHT22;11828;51.508;18.118;2023-11-22T12:53:23;22.10;20.60
23311;DHT22;11828;51.508;18.118;2023-11-22T12:55:52;22.20;20.80
23311;DHT22;11828;51.508;18.118;2023-11-22T12:58:24;22.40;20.50
23311;DHT22;11828;51.508;18.118;2023-11-22T13:00:53;22.40;20.40
23311;DHT22;11828;51.508;18.118;2023-11-22T13:03:27;22.40;20.40
23311;DHT22;11828;51.508;18.118;2023-11-22T13:05:54;22.50;20.30
23311;DHT22;11828;51.508;18.118;2023-11-22T13:08:21;22.30;20.40
23311;DHT22;11828;51.508;18.118;2023-11-22T13:10:54;22.30;20.60
23311;DHT22;11828;51.508;18.118;2023-11-22T13:13:24;22.30;20.60
23311;DHT22;11828;51.508;18.118;2023-11-22T13:15:51;22.20;20.40
23311;DHT22;11828;51.508;18.118;2023-11-22T13:18:18;22.30;20.20
23311;DHT22;11828;51.508;18.118;2023-11-22T13:20:44;22.30;20.20
23311;DHT22;11828;51.508;18.118;2023-11-22T13:23:11;22.30;20.30
23311;DHT22;11828;51.508;18.118;2023-11-22T13:25:40;22.40;20.20
23311;DHT22;11828;51.508;18.118;2023-11-22T13:28:07;22.40;19.90
23311;DHT22;11828;51.508;18.118;2023-11-22T13:30:34;22.40;20.10
23311;DHT22;11828;51.508;18.118;2023-11-22T13:33:01;22.30;20.20
23311;DHT22;11828;51.508;18.118;2023-11-22T13:35:28;22.30;20.20
23311;DHT22;11828;51.508;18.118;2023-11-22T13:38:03;22.30;20.20
23311;DHT22;11828;51.508;18.118;2023-11-22T13:40:35;22.20;20.00
23311;DHT22;11828;51.508;18.118;2023-11-22T13:43:05;22.20;20.30
23311;DHT22;11828;51.508;18.118;2023-11-22T13:45:32;22.00;20.40
23311;DHT22;11828;51.508;18.118;2023-11-22T13:47:59;21.90;20.60
23311;DHT22;11828;51.508;18.118;2023-11-22T13:50:33;21.90;20.80
23311;DHT22;11828;51.508;18.118;2023-11-22T13:53:00;21.70;20.70
23311;DHT22;11828;51.508;18.118;2023-11-22T13:55:26;21.60;20.80
23311;DHT22;11828;51.508;18.118;2023-11-22T13:57:58;21.40;21.00
23311;DHT22;11828;51.508;18.118;2023-11-22T14:00:27;21.30;21.10
23311;DHT22;11828;51.508;18.118;2023-11-22T14:02:59;21.20;21.30
23311;DHT22;11828;51.508;18.118;2023-11-22T14:05:32;20.90;21.20
23311;DHT22;11828;51.508;18.118;2023-11-22T14:08:00;20.80;21.30
23311;DHT22;11828;51.508;18.118;2023-11-22T14:10:26;20.70;21.60
23311;DHT22;11828;51.508;18.118;2023-11-22T14:12:53;20.60;21.60
23311;DHT22;11828;51.508;18.118;2023-11-22T14:15:19;20.50;21.60
23311;DHT22;11828;51.508;18.118;2023-11-22T14:17:48;20.40;21.80
23311;DHT22;11828;51.508;18.118;2023-11-22T14:20:17;20.30;21.90
23311;DHT22;11828;51.508;18.118;2023-11-22T14:22:43;20.30;22.40
23311;DHT22;11828;51.508;18.118;2023-11-22T14:25:10;20.30;22.50
23311;DHT22;11828;51.508;18.118;2023-11-22T14:27:41;20.20;22.50
23311;DHT22;11828;51.508;18.118;2023-11-22T14:30:09;20.30;22.60
23311;DHT22;11828;51.508;18.118;2023-11-22T14:32:37;20.20;22.60
23311;DHT22;11828;51.508;18.118;2023-11-22T14:35:04;20.20;22.60
23311;DHT22;11828;51.508;18.118;2023-11-22T14:37:31;20.20;22.60
23311;DHT22;11828;51.508;18.118;2023-11-22T14:39:57;20.20;22.60
23311;DHT22;11828;51.508;18.118;2023-11-22T14:42:23;20.20;22.50
23311;DHT22;11828;51.508;18.118;2023-11-22T14:44:51;20.10;22.60
23311;DHT22;11828;51.508;18.118;2023-11-22T14:47:18;20.10;22.60
23311;DHT22;11828;51.508;18.118;2023-11-22T14:49:56;20.10;22.70
23311;DHT22;11828;51.508;18.118;2023-11-22T14:52:22;20.10;22.70
23311;DHT22;11828;51.508;18.118;2023-11-22T14:54:48;20.10;22.60
23311;DHT22;11828;51.508;18.118;2023-11-22T14:57:16;20.10;22.50
23311;DHT22;11828;51.508;18.118;2023-11-22T14:59:43;20.10;23.00
23311;DHT22;11828;51.508;18.118;2023-11-22T15:02:11;20.10;22.60
23311;DHT22;11828;51.508;18.118;2023-11-22T15:04:38;20.00;22.40
23311;DHT22;11828;51.508;18.118;2023-11-22T15:07:04;20.00;22.40
23311;DHT22;11828;51.508;18.118;2023-11-22T15:09:33;19.90;22.50
23311;DHT22;11828;51.508;18.118;2023-11-22T15:12:00;19.80;22.40
23311;DHT22;11828;51.508;18.118;2023-11-22T15:14:30;19.70;22.50
23311;DHT22;11828;51.508;18.118;2023-11-22T15:16:58;19.60;22.60
23311;DHT22;11828;51.508;18.118;2023-11-22T15:19:26;19.50;22.70
23311;DHT22;11828;51.508;18.118;2023-11-22T15:21:54;19.30;22.80